sensor_id;sensor_type;location;lat;lon;timestamp;temperature;humidity
15483;DHT22;7843;50.330;7.312;2023-03-24T00:00:01;11.20;99.90
15483;DHT22;7843;50.330;7.312;2023-03-24T00:02:31;11.30;99.90
15483;DHT22;7843;50.330;7.312;2023-03-24T00:05:03;11.30;99.90
15483;DHT22;7843;50.330;7.312;2023-03-24T00:07:31;11.20;99.90
15483;DHT22;7843;50.330;7.312;2023-03-24T00:10:00;11.20;99.90
15483;DHT22;7843;50.330;7.312;2023-03-24T00:12:26;11.00;99.90
15483;DHT22;7843;50.330;7.312;2023-03-24T00:14:53;11.10;99.90
15483;DHT22;7843;50.330;7.312;2023-03-24T00:17:20;11.10;99.90
15483;DHT22;7843;50.330;7.312;2023-03-24T00:19:51;11.10;99.90
15483;DHT22;7843;50.330;7.312;2023-03-24T00:22:18;11.10;99.90
15483;DHT22;7843;50.330;7.312;2023-03-24T00:24:46;11.10;99.90
15483;DHT22;7843;50.330;7.312;2023-03-24T00:27:15;11.10;99.90
15483;DHT22;7843;50.330;7.312;2023-03-24T00:29:43;11.20;99.90
15483;DHT22;7843;50.330;7.312;2023-03-24T00:32:09;11.10;99.90
15483;DHT22;7843;50.330;7.312;2023-03-24T00:34:36;11.20;99.90
15483;DHT22;7843;50.330;7.312;2023-03-24T00:37:04;11.20;99.90
15483;DHT22;7843;50.330;7.312;2023-03-24T00:39:32;11.10;99.90
15483;DHT22;7843;50.330;7.312;2023-03-24T00:41:59;11.00;99.90
15483;DHT22;7843;50.330;7.312;2023-03-24T00:44:27;11.10;99.90
15483;DHT22;7843;50.330;7.312;2023-03-24T00:46:53;11.00;99.90
15483;DHT22;7843;50.330;7.312;2023-03-24T00:49:30;11.00;99.90
15483;DHT22;7843;50.330;7.312;2023-03-24T00:52:12;11.00;99.90
15483;DHT22;7843;50.330;7.312;2023-03-24T00:54:39;11.00;99.90
15483;DHT22;7843;50.330;7.312;2023-03-24T00:57:09;11.00;99.90
15483;DHT22;7843;50.330;7.312;2023-03-24T00:59:38;11.00;99.90
15483;DHT22;7843;50.330;7.312;2023-03-24T01:02:08;11.00;99.90
15483;DHT22;7843;50.330;7.312;2023-03-24T01:04:38;10.90;99.90
15483;DHT22;7843;50.330;7.312;2023-03-24T01:07:06;10.80;99.90
15483;DHT22;7843;50.330;7.312;2023-03-24T01:09:33;10.80;99.90
15483;DHT22;7843;50.330;7.312;2023-03-24T01:12:03;10.70;99.90
15483;DHT22;7843;50.330;7.312;2023-03-24T01:14:31;10.70;99.90
15483;DHT22;7843;50.330;7.312;2023-03-24T01:16:58;10.70;99.90
15483;DHT22;7843;50.330;7.312;2023-03-24T01:19:25;10.80;99.90
15483;DHT22;7843;50.330;7.312;2023-03-24T01:21:52;10.80;99.90
15483;DHT22;7843;50.330;7.312;2023-03-24T01:24:20;10.80;99.90
15483;DHT22;7843;50.330;7.312;2023-03-24T01:26:50;10.90;99.90
15483;DHT22;7843;50.330;7.312;2023-03-24T01:29:17;10.80;99.90
15483;DHT22;7843;50.330;7.312;2023-03-24T01:31:44;10.80;99.90
15483;DHT22;7843;50.330;7.312;2023-03-24T01:34:11;10.80;99.90
15483;DHT22;7843;50.330;7.312;2023-03-24T01:36:38;10.70;99.90
15483;DHT22;7843;50.330;7.312;2023-03-24T01:39:04;10.70;99.90
15483;DHT22;7843;50.330;7.312;2023-03-24T01:41:35;10.70;99.90
15483;DHT22;7843;50.330;7.312;2023-03-24T01:44:35;10.70;99.90
15483;DHT22;7843;50.330;7.312;2023-03-24T01:47:05;10.60;99.90
15483;DHT22;7843;50.330;7.312;2023-03-24T01:49:44;10.60;99.90
15483;DHT22;7843;50.330;7.312;2023-03-24T01:52:17;10.60;99.90
15483;DHT22;7843;50.330;7.312;2023-03-24T01:54:51;10.60;99.90
15483;DHT22;7843;50.330;7.312;2023-03-24T01:57:31;10.60;99.90
15483;DHT22;7843;50.330;7.312;2023-03-24T02:00:02;10.60;99.90
15483;DHT22;7843;50.330;7.312;2023-03-24T02:02:30;10.50;99.90
15483;DHT22;7843;50.330;7.312;2023-03-24T02:05:04;10.50;99.90
15483;DHT22;7843;50.330;7.312;2023-03-24T02:07:40;10.40;99.90
15483;DHT22;7843;50.330;7.312;2023-03-24T02:10:12;10.40;99.90
15483;DHT22;7843;50.330;7.312;2023-03-24T02:12:41;10.40;99.90
15483;DHT22;7843;50.330;7.312;2023-03-24T02:15:09;10.40;99.90
15483;DHT22;7843;50.330;7.312;2023-03-24T02:26:07;10.30;99.90
15483;DHT22;7843;50.330;7.312;2023-03-24T02:32:00;10.30;99.90
15483;DHT22;7843;50.330;7.312;2023-03-24T02:43:21;10.20;99.90
15483;DHT22;7843;50.330;7.312;2023-03-24T02:49:20;10.20;99.90
15483;DHT22;7843;50.330;7.312;2023-03-24T02:51:59;10.20;99.90
15483;DHT22;7843;50.330;7.312;2023-03-24T02:57:12;10.20;99.90
15483;DHT22;7843;50.330;7.312;2023-03-24T03:02:36;10.20;99.90
15483;DHT22;7843;50.330;7.312;2023-03-24T03:05:14;10.20;99.90
15483;DHT22;7843;50.330;7.312;2023-03-24T03:07:43;10.20;99.90
15483;DHT22;7843;50.330;7.312;2023-03-24T03:10:15;10.10;99.90
15483;DHT22;7843;50.330;7.312;2023-03-24T03:12:44;10.10;99.90
15483;DHT22;7843;50.330;7.312;2023-03-24T03:15:18;10.10;99.90
15483;DHT22;7843;50.330;7.312;2023-03-24T03:18:13;10.10;99.90
15483;DHT22;7843;50.330;7.312;2023-03-24T03:20:46;10.10;99.90
15483;DHT22;7843;50.330;7.312;2023-03-24T03:23:26;10.20;99.90
15483;DHT22;7843;50.330;7.312;2023-03-24T03:25:58;10.20;99.90
15483;DHT22;7843;50.330;7.312;2023-03-24T03:28:33;10.30;99.90
15483;DHT22;7843;50.330;7.312;2023-03-24T03:31:07;10.40;99.90
15483;DHT22;7843;50.330;7.312;2023-03-24T03:34:06;10.50;99.90
15483;DHT22;7843;50.330;7.312;2023-03-24T03:39:19;10.90;99.90
15483;DHT22;7843;50.330;7.312;2023-03-24T03:41:47;11.00;99.90
15483;DHT22;7843;50.330;7.312;2023-03-24T03:44:13;11.20;99.90
15483;DHT22;7843;50.330;7.312;2023-03-24T03:46:41;11.20;99.90
15483;DHT22;7843;50.330;7.312;2023-03-24T03:49:08;11.30;99.90
15483;DHT22;7843;50.330;7.312;2023-03-24T03:51:35;11.40;99.90
15483;DHT22;7843;50.330;7.312;2023-03-24T03:54:04;11.50;99.90
15483;DHT22;7843;50.330;7.312;2023-03-24T03:56:34;11.50;99.90
15483;DHT22;7843;50.330;7.312;2023-03-24T03:59:02;11.40;99.90
15483;DHT22;7843;50.330;7.312;2023-03-24T04:01:31;11.50;99.90
15483;DHT22;7843;50.330;7.312;2023-03-24T04:15:53;11.80;99.90
15483;DHT22;7843;50.330;7.312;2023-03-24T04:18:48;11.70;99.90
15483;DHT22;7843;50.330;7.312;2023-03-24T04:24:39;11.80;99.90
15483;DHT22;7843;50.330;7.312;2023-03-24T04:30:29;11.80;99.90
15483;DHT22;7843;50.330;7.312;2023-03-24T04:33:02;11.80;99.90
15483;DHT22;7843;50.330;7.312;2023-03-24T04:35:34;11.90;99.90
15483;DHT22;7843;50.330;7.312;2023-03-24T04:38:05;12.00;99.90
15483;DHT22;7843;50.330;7.312;2023-03-24T04:40:36;12.00;99.90
15483;DHT22;7843;50.330;7.312;2023-03-24T04:43:09;12.00;99.90
15483;DHT22;7843;50.330;7.312;2023-03-24T04:45:39;12.00;99.90
15483;DHT22;7843;50.330;7.312;2023-03-24T04:48:08;12.00;99.90
15483;DHT22;7843;50.330;7.312;2023-03-24T04:50:39;12.00;99.90
15483;DHT22;7843;50.330;7.312;2023-03-24T04:53:08;11.90;99.90
15483;DHT22;7843;50.330;7.312;2023-03-24T04:58:21;11.80;99.90
15483;DHT22;7843;50.330;7.312;2023-03-24T05:00:49;11.80;99.90
15483;DHT22;7843;50.330;7.312;2023-03-24T05:03:17;11.70;99.90
15483;DHT22;7843;50.330;7.312;2023-03-24T05:05:46;11.70;99.90
15483;DHT22;7843;50.330;7.312;2023-03-24T05:08:14;11.70;99.90
15483;DHT22;7843;50.330;7.312;2023-03-24T05:10:42;11.80;99.90
15483;DHT22;7843;50.330;7.312;2023-03-24T05:13:09;11.70;99.90
15483;DHT22;7843;50.330;7.312;2023-03-24T05:15:36;11.60;99.90
15483;DHT22;7843;50.330;7.312;2023-03-24T05:18:04;11.50;99.90
15483;DHT22;7843;50.330;7.312;2023-03-24T05:20:31;11.50;99.90
15483;DHT22;7843;50.330;7.312;2023-03-24T05:22:58;11.50;99.90
15483;DHT22;7843;50.330;7.312;2023-03-24T05:25:25;11.40;99.90
15483;DHT22;7843;50.330;7.312;2023-03-24T05:27:52;11.30;99.90
15483;DHT22;7843;50.330;7.312;2023-03-24T05:30:18;11.20;99.90
15483;DHT22;7843;50.330;7.312;2023-03-24T05:32:46;11.20;99.90
15483;DHT22;7843;50.330;7.312;2023-03-24T05:35:13;11.20;99.90
15483;DHT22;7843;50.330;7.312;2023-03-24T05:37:40;11.20;99.90
15483;DHT22;7843;50.330;7.312;2023-03-24T05:40:07;11.20;99.90
15483;DHT22;7843;50.330;7.312;2023-03-24T05:42:33;11.20;99.90
15483;DHT22;7843;50.330;7.312;2023-03-24T05:45:00;11.20;99.90
15483;DHT22;7843;50.330;7.312;2023-03-24T05:47:27;11.20;99.90
15483;DHT22;7843;50.330;7.312;2023-03-24T05:49:54;11.20;99.90
15483;DHT22;7843;50.330;7.312;2023-03-24T05:52:20;11.10;99.90
15483;DHT22;7843;50.330;7.312;2023-03-24T05:54:48;11.10;99.90
15483;DHT22;7843;50.330;7.312;2023-03-24T05:57:18;11.10;99.90
15483;DHT22;7843;50.330;7.312;2023-03-24T05:59:46;11.20;99.90
15483;DHT22;7843;50.330;7.312;2023-03-24T06:02:12;11.20;99.90
15483;DHT22;7843;50.330;7.312;2023-03-24T06:04:39;11.20;99.90
15483;DHT22;7843;50.330;7.312;2023-03-24T06:07:11;11.20;99.90
15483;DHT22;7843;50.330;7.312;2023-03-24T06:09:38;11.20;99.90
15483;DHT22;7843;50.330;7.312;2023-03-24T06:12:08;11.20;99.90
15483;DHT22;7843;50.330;7.312;2023-03-24T06:14:35;11.20;99.90
15483;DHT22;7843;50.330;7.312;2023-03-24T06:17:02;11.20;99.90
15483;DHT22;7843;50.330;7.312;2023-03-24T06:19:28;11.20;99.90
15483;DHT22;7843;50.330;7.312;2023-03-24T06:21:56;11.20;99.90
15483;DHT22;7843;50.330;7.312;2023-03-24T06:24:26;11.30;99.90
15483;DHT22;7843;50.330;7.312;2023-03-24T06:26:53;11.20;99.90
15483;DHT22;7843;50.330;7.312;2023-03-24T06:29:28;11.20;99.90
15483;DHT22;7843;50.330;7.312;2023-03-24T06:31:56;11.20;99.90
15483;DHT22;7843;50.330;7.312;2023-03-24T06:34:23;11.30;99.90
15483;DHT22;7843;50.330;7.312;2023-03-24T06:36:51;11.20;99.90
15483;DHT22;7843;50.330;7.312;2023-03-24T06:39:17;11.30;99.90
15483;DHT22;7843;50.330;7.312;2023-03-24T06:41:44;11.40;99.90
15483;DHT22;7843;50.330;7.312;2023-03-24T06:44:11;11.50;99.90
15483;DHT22;7843;50.330;7.312;2023-03-24T06:46:38;11.50;99.90
15483;DHT22;7843;50.330;7.312;2023-03-24T06:49:05;11.60;99.90
15483;DHT22;7843;50.330;7.312;2023-03-24T06:51:32;11.70;99.90
15483;DHT22;7843;50.330;7.312;2023-03-24T06:53:59;11.80;99.90
15483;DHT22;7843;50.330;7.312;2023-03-24T06:56:25;11.90;99.90
15483;DHT22;7843;50.330;7.312;2023-03-24T06:58:52;12.00;99.90
15483;DHT22;7843;50.330;7.312;2023-03-24T07:01:19;12.10;99.90
15483;DHT22;7843;50.330;7.312;2023-03-24T07:03:46;12.20;99.90
15483;DHT22;7843;50.330;7.312;2023-03-24T07:06:13;12.40;99.90
15483;DHT22;7843;50.330;7.312;2023-03-24T07:08:40;12.70;99.90
15483;DHT22;7843;50.330;7.312;2023-03-24T07:11:08;13.00;99.90
15483;DHT22;7843;50.330;7.312;2023-03-24T07:13:35;13.30;99.90
15483;DHT22;7843;50.330;7.312;2023-03-24T07:16:02;13.50;99.90
15483;DHT22;7843;50.330;7.312;2023-03-24T07:18:29;13.60;99.90
15483;DHT22;7843;50.330;7.312;2023-03-24T07:20:55;13.60;99.90
15483;DHT22;7843;50.330;7.312;2023-03-24T07:23:22;13.50;99.90
15483;DHT22;7843;50.330;7.312;2023-03-24T07:25:51;13.40;99.90
15483;DHT22;7843;50.330;7.312;2023-03-24T07:28:17;12.60;98.80
15483;DHT22;7843;50.330;7.312;2023-03-24T07:30:44;11.80;99.80
15483;DHT22;7843;50.330;7.312;2023-03-24T07:33:11;11.30;99.90
15483;DHT22;7843;50.330;7.312;2023-03-24T07:35:38;10.90;99.90
15483;DHT22;7843;50.330;7.312;2023-03-24T07:38:06;10.80;99.90
15483;DHT22;7843;50.330;7.312;2023-03-24T07:40:32;10.70;99.90
15483;DHT22;7843;50.330;7.312;2023-03-24T07:43:02;10.70;99.90
15483;DHT22;7843;50.330;7.312;2023-03-24T07:45:34;10.60;99.90
15483;DHT22;7843;50.330;7.312;2023-03-24T07:48:01;10.60;99.90
15483;DHT22;7843;50.330;7.312;2023-03-24T07:50:29;10.70;99.90
15483;DHT22;7843;50.330;7.312;2023-03-24T07:52:56;10.70;99.90
15483;DHT22;7843;50.330;7.312;2023-03-24T07:55:24;10.80;99.90
15483;DHT22;7843;50.330;7.312;2023-03-24T07:57:51;11.00;99.90
15483;DHT22;7843;50.330;7.312;2023-03-24T08:00:18;11.00;99.30
15483;DHT22;7843;50.330;7.312;2023-03-24T08:02:51;10.90;99.80
15483;DHT22;7843;50.330;7.312;2023-03-24T08:05:20;10.90;99.90
15483;DHT22;7843;50.330;7.312;2023-03-24T08:07:49;11.00;99.90
15483;DHT22;7843;50.330;7.312;2023-03-24T08:10:21;11.00;99.90
15483;DHT22;7843;50.330;7.312;2023-03-24T08:12:49;11.10;99.60
15483;DHT22;7843;50.330;7.312;2023-03-24T08:15:16;11.20;99.90
15483;DHT22;7843;50.330;7.312;2023-03-24T08:17:43;11.20;99.90
15483;DHT22;7843;50.330;7.312;2023-03-24T08:20:11;11.30;99.90
15483;DHT22;7843;50.330;7.312;2023-03-24T08:22:41;11.30;99.90
15483;DHT22;7843;50.330;7.312;2023-03-24T08:25:10;11.20;99.90
15483;DHT22;7843;50.330;7.312;2023-03-24T08:27:38;11.30;99.60
15483;DHT22;7843;50.330;7.312;2023-03-24T08:30:07;11.30;99.10
15483;DHT22;7843;50.330;7.312;2023-03-24T08:32:35;11.30;98.20
15483;DHT22;7843;50.330;7.312;2023-03-24T08:35:02;11.30;98.60
15483;DHT22;7843;50.330;7.312;2023-03-24T08:37:32;11.40;98.60
15483;DHT22;7843;50.330;7.312;2023-03-24T08:39:59;11.40;98.40
15483;DHT22;7843;50.330;7.312;2023-03-24T08:42:30;11.50;96.70
15483;DHT22;7843;50.330;7.312;2023-03-24T08:44:57;11.60;96.80
15483;DHT22;7843;50.330;7.312;2023-03-24T08:47:24;11.50;96.20
15483;DHT22;7843;50.330;7.312;2023-03-24T08:49:54;11.50;96.40
15483;DHT22;7843;50.330;7.312;2023-03-24T08:52:23;11.60;95.80
15483;DHT22;7843;50.330;7.312;2023-03-24T08:54:50;11.50;95.90
15483;DHT22;7843;50.330;7.312;2023-03-24T08:57:17;11.60;95.90
15483;DHT22;7843;50.330;7.312;2023-03-24T08:59:44;11.70;97.30
15483;DHT22;7843;50.330;7.312;2023-03-24T09:02:12;11.80;96.80
15483;DHT22;7843;50.330;7.312;2023-03-24T09:04:38;11.80;96.30
15483;DHT22;7843;50.330;7.312;2023-03-24T09:07:08;11.80;96.20
15483;DHT22;7843;50.330;7.312;2023-03-24T09:09:35;11.90;96.30
15483;DHT22;7843;50.330;7.312;2023-03-24T09:12:02;11.90;95.50
15483;DHT22;7843;50.330;7.312;2023-03-24T09:14:28;12.00;96.00
15483;DHT22;7843;50.330;7.312;2023-03-24T09:16:55;12.00;95.10
15483;DHT22;7843;50.330;7.312;2023-03-24T09:19:22;12.00;94.10
15483;DHT22;7843;50.330;7.312;2023-03-24T09:21:48;12.10;95.00
15483;DHT22;7843;50.330;7.312;2023-03-24T09:24:15;12.30;95.60
15483;DHT22;7843;50.330;7.312;2023-03-24T09:26:42;12.30;94.80
15483;DHT22;7843;50.330;7.312;2023-03-24T09:29:08;12.40;95.50
15483;DHT22;7843;50.330;7.312;2023-03-24T09:31:35;12.40;95.10
15483;DHT22;7843;50.330;7.312;2023-03-24T09:34:02;12.40;92.90
15483;DHT22;7843;50.330;7.312;2023-03-24T09:36:29;12.40;94.00
15483;DHT22;7843;50.330;7.312;2023-03-24T09:38:56;12.50;94.70
15483;DHT22;7843;50.330;7.312;2023-03-24T09:41:28;12.50;94.00
15483;DHT22;7843;50.330;7.312;2023-03-24T09:44:11;12.60;93.50
15483;DHT22;7843;50.330;7.312;2023-03-24T09:46:45;12.70;93.10
15483;DHT22;7843;50.330;7.312;2023-03-24T09:49:18;12.80;93.50
15483;DHT22;7843;50.330;7.312;2023-03-24T09:51:49;12.90;92.30
15483;DHT22;7843;50.330;7.312;2023-03-24T09:54:31;13.00;92.30
15483;DHT22;7843;50.330;7.312;2023-03-24T09:57:02;13.20;92.50
15483;DHT22;7843;50.330;7.312;2023-03-24T09:59:37;13.30;90.90
15483;DHT22;7843;50.330;7.312;2023-03-24T10:02:19;13.40;91.10
15483;DHT22;7843;50.330;7.312;2023-03-24T10:04:48;13.40;90.40
15483;DHT22;7843;50.330;7.312;2023-03-24T10:13:06;13.90;90.80
15483;DHT22;7843;50.330;7.312;2023-03-24T10:15:45;14.10;88.30
15483;DHT22;7843;50.330;7.312;2023-03-24T10:18:29;14.20;89.20
15483;DHT22;7843;50.330;7.312;2023-03-24T10:26:41;13.80;89.50
15483;DHT22;7843;50.330;7.312;2023-03-24T10:29:31;13.90;88.10
15483;DHT22;7843;50.330;7.312;2023-03-24T10:32:13;13.80;87.80
15483;DHT22;7843;50.330;7.312;2023-03-24T10:34:43;14.10;89.20
15483;DHT22;7843;50.330;7.312;2023-03-24T10:37:12;14.20;89.10
15483;DHT22;7843;50.330;7.312;2023-03-24T10:39:39;14.20;88.00
15483;DHT22;7843;50.330;7.312;2023-03-24T10:42:17;14.30;87.90
15483;DHT22;7843;50.330;7.312;2023-03-24T10:44:49;14.40;89.00
15483;DHT22;7843;50.330;7.312;2023-03-24T10:47:19;14.30;85.40
15483;DHT22;7843;50.330;7.312;2023-03-24T10:49:57;14.30;86.90
15483;DHT22;7843;50.330;7.312;2023-03-24T10:52:24;14.60;87.80
15483;DHT22;7843;50.330;7.312;2023-03-24T10:54:57;14.70;85.60
15483;DHT22;7843;50.330;7.312;2023-03-24T10:57:25;15.00;86.60
15483;DHT22;7843;50.330;7.312;2023-03-24T10:59:57;15.20;86.50
15483;DHT22;7843;50.330;7.312;2023-03-24T11:02:31;15.30;83.50
15483;DHT22;7843;50.330;7.312;2023-03-24T11:07:38;15.00;81.60
15483;DHT22;7843;50.330;7.312;2023-03-24T11:12:43;14.60;81.00
15483;DHT22;7843;50.330;7.312;2023-03-24T11:15:24;14.70;82.10
15483;DHT22;7843;50.330;7.312;2023-03-24T11:20:30;15.10;81.90
15483;DHT22;7843;50.330;7.312;2023-03-24T11:23:05;15.20;81.50
15483;DHT22;7843;50.330;7.312;2023-03-24T11:25:35;15.60;83.90
15483;DHT22;7843;50.330;7.312;2023-03-24T11:28:06;15.70;79.00
15483;DHT22;7843;50.330;7.312;2023-03-24T11:33:20;15.90;80.80
15483;DHT22;7843;50.330;7.312;2023-03-24T11:35:48;16.00;79.40
15483;DHT22;7843;50.330;7.312;2023-03-24T11:38:26;16.40;79.80
15483;DHT22;7843;50.330;7.312;2023-03-24T11:40:59;16.50;75.10
15483;DHT22;7843;50.330;7.312;2023-03-24T11:43:26;16.60;75.50
15483;DHT22;7843;50.330;7.312;2023-03-24T11:46:07;16.50;75.90
15483;DHT22;7843;50.330;7.312;2023-03-24T11:51:24;16.00;74.70
15483;DHT22;7843;50.330;7.312;2023-03-24T11:53:54;15.70;74.20
15483;DHT22;7843;50.330;7.312;2023-03-24T11:56:32;15.70;73.90
15483;DHT22;7843;50.330;7.312;2023-03-24T11:59:26;15.70;74.10
15483;DHT22;7843;50.330;7.312;2023-03-24T12:02:01;16.00;73.10
15483;DHT22;7843;50.330;7.312;2023-03-24T12:13:22;16.80;71.30
15483;DHT22;7843;50.330;7.312;2023-03-24T12:20:51;17.40;68.10
15483;DHT22;7843;50.330;7.312;2023-03-24T12:32:02;18.50;65.50
15483;DHT22;7843;50.330;7.312;2023-03-24T12:37:45;18.40;65.20
15483;DHT22;7843;50.330;7.312;2023-03-24T12:40:44;18.00;67.00
15483;DHT22;7843;50.330;7.312;2023-03-24T12:43:43;18.80;64.00
15483;DHT22;7843;50.330;7.312;2023-03-24T12:48:55;20.90;59.80
15483;DHT22;7843;50.330;7.312;2023-03-24T12:54:23;21.40;58.80
15483;DHT22;7843;50.330;7.312;2023-03-24T12:57:04;20.50;58.80
15483;DHT22;7843;50.330;7.312;2023-03-24T12:59:38;20.30;59.20
15483;DHT22;7843;50.330;7.312;2023-03-24T13:02:35;20.70;59.40
15483;DHT22;7843;50.330;7.312;2023-03-24T13:05:06;20.70;60.80
15483;DHT22;7843;50.330;7.312;2023-03-24T13:07:37;21.90;61.20
15483;DHT22;7843;50.330;7.312;2023-03-24T13:10:29;22.70;56.50
15483;DHT22;7843;50.330;7.312;2023-03-24T13:13:14;22.40;56.40
15483;DHT22;7843;50.330;7.312;2023-03-24T13:15:57;23.10;57.00
15483;DHT22;7843;50.330;7.312;2023-03-24T13:18:45;23.60;57.00
15483;DHT22;7843;50.330;7.312;2023-03-24T13:21:15;22.80;54.10
15483;DHT22;7843;50.330;7.312;2023-03-24T13:23:51;21.50;55.60
15483;DHT22;7843;50.330;7.312;2023-03-24T13:29:45;21.50;58.40
15483;DHT22;7843;50.330;7.312;2023-03-24T13:40:21;21.60;56.70
15483;DHT22;7843;50.330;7.312;2023-03-24T13:42:57;20.60;58.70
15483;DHT22;7843;50.330;7.312;2023-03-24T13:50:40;19.90;61.40
15483;DHT22;7843;50.330;7.312;2023-03-24T13:53:13;19.80;60.20
15483;DHT22;7843;50.330;7.312;2023-03-24T13:55:47;19.60;62.70
15483;DHT22;7843;50.330;7.312;2023-03-24T13:58:22;19.50;61.90
15483;DHT22;7843;50.330;7.312;2023-03-24T14:03:42;20.90;60.60
15483;DHT22;7843;50.330;7.312;2023-03-24T14:06:14;22.20;57.60
15483;DHT22;7843;50.330;7.312;2023-03-24T14:14:25;24.60;54.30
15483;DHT22;7843;50.330;7.312;2023-03-24T14:19:37;26.30;50.20
15483;DHT22;7843;50.330;7.312;2023-03-24T14:24:43;27.00;51.10
15483;DHT22;7843;50.330;7.312;2023-03-24T14:29:50;26.60;50.90
15483;DHT22;7843;50.330;7.312;2023-03-24T14:32:19;24.80;51.70
15483;DHT22;7843;50.330;7.312;2023-03-24T14:34:58;24.20;53.50
15483;DHT22;7843;50.330;7.312;2023-03-24T14:37:26;24.80;54.20
15483;DHT22;7843;50.330;7.312;2023-03-24T14:39:56;25.40;51.90
15483;DHT22;7843;50.330;7.312;2023-03-24T14:45:01;26.10;49.30
15483;DHT22;7843;50.330;7.312;2023-03-24T14:47:30;26.10;50.50
15483;DHT22;7843;50.330;7.312;2023-03-24T14:50:00;25.00;50.80
15483;DHT22;7843;50.330;7.312;2023-03-24T14:52:34;23.80;52.90
15483;DHT22;7843;50.330;7.312;2023-03-24T14:55:08;24.40;52.10
15483;DHT22;7843;50.330;7.312;2023-03-24T14:57:41;25.20;52.90
15483;DHT22;7843;50.330;7.312;2023-03-24T15:00:33;26.00;50.50
15483;DHT22;7843;50.330;7.312;2023-03-24T15:03:15;26.10;49.60
15483;DHT22;7843;50.330;7.312;2023-03-24T15:05:43;26.30;50.60
15483;DHT22;7843;50.330;7.312;2023-03-24T15:08:15;26.60;50.10
15483;DHT22;7843;50.330;7.312;2023-03-24T15:10:45;26.00;50.80
15483;DHT22;7843;50.330;7.312;2023-03-24T15:13:36;25.50;49.50
15483;DHT22;7843;50.330;7.312;2023-03-24T15:21:34;26.50;50.20
15483;DHT22;7843;50.330;7.312;2023-03-24T15:26:52;24.20;51.00
15483;DHT22;7843;50.330;7.312;2023-03-24T15:29:19;24.30;48.90
15483;DHT22;7843;50.330;7.312;2023-03-24T15:31:46;23.70;52.90
15483;DHT22;7843;50.330;7.312;2023-03-24T15:37:03;23.20;52.80
15483;DHT22;7843;50.330;7.312;2023-03-24T15:39:35;22.90;51.60
15483;DHT22;7843;50.330;7.312;2023-03-24T15:42:15;21.90;52.90
15483;DHT22;7843;50.330;7.312;2023-03-24T15:44:43;20.90;53.60
15483;DHT22;7843;50.330;7.312;2023-03-24T15:47:16;20.20;55.10
15483;DHT22;7843;50.330;7.312;2023-03-24T15:49:56;19.40;56.60
15483;DHT22;7843;50.330;7.312;2023-03-24T15:55:00;18.80;59.20
15483;DHT22;7843;50.330;7.312;2023-03-24T15:57:35;18.40;60.40
15483;DHT22;7843;50.330;7.312;2023-03-24T16:02:43;18.50;59.90
15483;DHT22;7843;50.330;7.312;2023-03-24T16:07:53;18.40;64.70
15483;DHT22;7843;50.330;7.312;2023-03-24T16:13:10;17.60;66.40
15483;DHT22;7843;50.330;7.312;2023-03-24T16:15:41;17.20;67.00
15483;DHT22;7843;50.330;7.312;2023-03-24T16:18:13;17.10;67.80
15483;DHT22;7843;50.330;7.312;2023-03-24T16:20:40;16.90;68.80
15483;DHT22;7843;50.330;7.312;2023-03-24T16:23:09;16.70;69.10
15483;DHT22;7843;50.330;7.312;2023-03-24T16:25:37;16.50;67.40
15483;DHT22;7843;50.330;7.312;2023-03-24T16:28:10;16.20;69.20
15483;DHT22;7843;50.330;7.312;2023-03-24T16:30:39;16.00;73.40
15483;DHT22;7843;50.330;7.312;2023-03-24T16:33:06;15.90;81.40
15483;DHT22;7843;50.330;7.312;2023-03-24T16:35:34;15.70;83.50
15483;DHT22;7843;50.330;7.312;2023-03-24T16:38:00;15.30;84.50
15483;DHT22;7843;50.330;7.312;2023-03-24T16:40:48;14.90;87.70
15483;DHT22;7843;50.330;7.312;2023-03-24T16:43:16;14.60;87.70
15483;DHT22;7843;50.330;7.312;2023-03-24T16:45:46;14.30;89.30
15483;DHT22;7843;50.330;7.312;2023-03-24T16:48:13;14.00;89.40
15483;DHT22;7843;50.330;7.312;2023-03-24T16:50:49;13.90;89.10
15483;DHT22;7843;50.330;7.312;2023-03-24T16:53:17;13.60;90.40
15483;DHT22;7843;50.330;7.312;2023-03-24T16:55:44;13.50;91.50
15483;DHT22;7843;50.330;7.312;2023-03-24T16:58:13;13.20;90.30
15483;DHT22;7843;50.330;7.312;2023-03-24T17:00:42;13.10;90.60
15483;DHT22;7843;50.330;7.312;2023-03-24T17:03:09;12.90;90.30
15483;DHT22;7843;50.330;7.312;2023-03-24T17:08:12;12.60;91.50
15483;DHT22;7843;50.330;7.312;2023-03-24T17:10:40;12.50;91.40
15483;DHT22;7843;50.330;7.312;2023-03-24T17:13:09;12.40;92.70
15483;DHT22;7843;50.330;7.312;2023-03-24T17:15:39;12.30;92.60
15483;DHT22;7843;50.330;7.312;2023-03-24T17:18:06;12.30;92.80
15483;DHT22;7843;50.330;7.312;2023-03-24T17:20:33;12.30;92.00
15483;DHT22;7843;50.330;7.312;2023-03-24T17:23:00;12.30;93.40
15483;DHT22;7843;50.330;7.312;2023-03-24T17:25:27;12.30;93.30
15483;DHT22;7843;50.330;7.312;2023-03-24T17:27:55;12.30;93.20
15483;DHT22;7843;50.330;7.312;2023-03-24T17:30:24;12.30;93.30
15483;DHT22;7843;50.330;7.312;2023-03-24T17:32:52;12.30;93.50
15483;DHT22;7843;50.330;7.312;2023-03-24T17:35:21;12.30;92.40
15483;DHT22;7843;50.330;7.312;2023-03-24T17:37:49;12.40;90.70
15483;DHT22;7843;50.330;7.312;2023-03-24T17:40:18;12.40;90.90
15483;DHT22;7843;50.330;7.312;2023-03-24T17:42:45;11.50;93.80
15483;DHT22;7843;50.330;7.312;2023-03-24T17:45:17;10.40;98.20
15483;DHT22;7843;50.330;7.312;2023-03-24T17:47:45;9.90;99.90
15483;DHT22;7843;50.330;7.312;2023-03-24T17:50:12;9.70;99.90
15483;DHT22;7843;50.330;7.312;2023-03-24T17:52:45;9.50;99.90
15483;DHT22;7843;50.330;7.312;2023-03-24T17:55:14;9.40;99.90
15483;DHT22;7843;50.330;7.312;2023-03-24T17:57:41;9.30;99.90
15483;DHT22;7843;50.330;7.312;2023-03-24T18:00:09;9.30;99.90
15483;DHT22;7843;50.330;7.312;2023-03-24T18:02:38;9.20;99.90
15483;DHT22;7843;50.330;7.312;2023-03-24T18:05:05;9.30;99.90
15483;DHT22;7843;50.330;7.312;2023-03-24T18:07:32;9.30;99.90
15483;DHT22;7843;50.330;7.312;2023-03-24T18:09:59;9.40;99.90
15483;DHT22;7843;50.330;7.312;2023-03-24T18:12:26;9.30;99.90
15483;DHT22;7843;50.330;7.312;2023-03-24T18:14:53;9.20;99.90
15483;DHT22;7843;50.330;7.312;2023-03-24T18:17:20;9.00;99.90
15483;DHT22;7843;50.330;7.312;2023-03-24T18:19:47;8.90;99.90
15483;DHT22;7843;50.330;7.312;2023-03-24T18:22:15;8.80;99.90
15483;DHT22;7843;50.330;7.312;2023-03-24T18:24:42;8.70;99.90
15483;DHT22;7843;50.330;7.312;2023-03-24T18:27:09;8.60;99.90
15483;DHT22;7843;50.330;7.312;2023-03-24T18:29:36;8.50;99.90
15483;DHT22;7843;50.330;7.312;2023-03-24T18:32:04;8.40;99.90
15483;DHT22;7843;50.330;7.312;2023-03-24T18:34:31;8.40;99.90
15483;DHT22;7843;50.330;7.312;2023-03-24T18:36:58;8.30;99.90
15483;DHT22;7843;50.330;7.312;2023-03-24T18:39:24;8.20;99.90
15483;DHT22;7843;50.330;7.312;2023-03-24T18:41:51;8.20;99.90
15483;DHT22;7843;50.330;7.312;2023-03-24T18:44:19;8.10;99.90
15483;DHT22;7843;50.330;7.312;2023-03-24T18:46:47;8.00;99.90
15483;DHT22;7843;50.330;7.312;2023-03-24T18:49:14;7.90;99.90
15483;DHT22;7843;50.330;7.312;2023-03-24T18:51:41;7.90;99.90
15483;DHT22;7843;50.330;7.312;2023-03-24T18:54:10;7.80;99.90
15483;DHT22;7843;50.330;7.312;2023-03-24T18:56:37;7.80;99.90